createdAt,value
2023-05-06T00:00:19.953Z,7.70
2023-05-06T00:02:47.129Z,9.05
2023-05-06T00:05:14.242Z,7.70
2023-05-06T00:07:41.136Z,6.50
2023-05-06T00:10:21.325Z,7.93
2023-05-06T00:12:47.846Z,6.93
2023-05-06T00:15:14.323Z,7.10
2023-05-06T00:17:40.881Z,6.68
2023-05-06T00:20:09.555Z,7.78
2023-05-06T00:22:36.176Z,7.53
2023-05-06T00:25:04.844Z,8.50
2023-05-06T00:27:31.298Z,6.55
2023-05-06T00:29:58.345Z,7.70
2023-05-06T00:32:24.850Z,7.53
2023-05-06T00:34:51.440Z,9.63
2023-05-06T00:37:17.877Z,7.32
2023-05-06T00:39:45.433Z,7.35
2023-05-06T00:42:11.893Z,7.53
2023-05-06T00:44:38.366Z,7.20
2023-05-06T00:47:05.019Z,6.78
2023-05-06T00:49:32.001Z,7.63
2023-05-06T00:51:59.640Z,8.70
2023-05-06T00:54:26.911Z,6.38
2023-05-06T00:56:54.348Z,7.25
2023-05-06T00:59:22.605Z,7.45
2023-05-06T01:01:55.086Z,7.60
2023-05-06T01:04:23.930Z,8.15
2023-05-06T01:07:06.270Z,7.35
2023-05-06T01:09:38.703Z,6.82
2023-05-06T01:12:17.144Z,7.50
2023-05-06T01:15:08.828Z,7.50
2023-05-06T01:20:12.000Z,8.40
2023-05-06T01:22:42.132Z,8.55
2023-05-06T01:25:21.297Z,8.43
2023-05-06T01:27:53.777Z,9.68
2023-05-06T01:30:30.317Z,7.43
2023-05-06T01:33:08.919Z,7.55
2023-05-06T01:35:58.982Z,7.88
2023-05-06T01:38:37.958Z,8.68
2023-05-06T01:41:05.906Z,7.82
2023-05-06T01:43:37.718Z,8.70
2023-05-06T01:46:06.189Z,8.45
2023-05-06T01:48:36.297Z,9.63
2023-05-06T01:51:03.110Z,7.93
2023-05-06T01:53:29.591Z,8.07
2023-05-06T01:55:56.062Z,7.20
2023-05-06T01:58:22.517Z,8.43
2023-05-06T02:00:48.968Z,8.55
2023-05-06T02:03:15.585Z,9.20
2023-05-06T02:05:42.148Z,8.48
2023-05-06T02:08:08.637Z,7.20
2023-05-06T02:10:35.080Z,7.57
2023-05-06T02:13:01.675Z,7.32
2023-05-06T02:15:28.242Z,7.40
2023-05-06T02:18:01.603Z,7.43
2023-05-06T02:20:28.116Z,11.13
2023-05-06T02:23:00.529Z,8.15
2023-05-06T02:25:27.580Z,7.45
2023-05-06T02:27:55.089Z,7.45
2023-05-06T02:30:21.561Z,7.05
2023-05-06T02:32:48.152Z,8.88
2023-05-06T02:35:14.628Z,9.18
2023-05-06T02:37:41.106Z,7.32
2023-05-06T02:40:08.975Z,8.25
2023-05-06T02:42:35.940Z,8.23
2023-05-06T02:45:02.645Z,8.50
2023-05-06T02:47:29.478Z,8.27
2023-05-06T02:50:05.976Z,10.05
2023-05-06T02:52:33.400Z,7.82
2023-05-06T02:55:00.463Z,9.25
2023-05-06T02:57:27.041Z,7.93
2023-05-06T02:59:54.621Z,8.15
2023-05-06T03:02:21.190Z,8.70
2023-05-06T03:04:48.789Z,7.57
2023-05-06T03:07:15.278Z,7.68
2023-05-06T03:09:41.774Z,6.57
2023-05-06T03:12:08.278Z,9.07
2023-05-06T03:14:35.742Z,8.57
2023-05-06T03:17:02.188Z,8.10
2023-05-06T03:19:28.650Z,7.97
2023-05-06T03:21:55.151Z,7.45
2023-05-06T03:24:21.763Z,7.20
2023-05-06T03:26:48.279Z,7.10
2023-05-06T03:29:14.742Z,8.00
2023-05-06T03:31:41.920Z,9.13
2023-05-06T03:34:10.837Z,8.10
2023-05-06T03:36:37.269Z,13.52
2023-05-06T03:39:03.779Z,7.47
2023-05-06T03:41:34.426Z,9.02
2023-05-06T03:44:01.190Z,9.13
2023-05-06T03:46:34.774Z,8.82
2023-05-06T03:49:02.803Z,8.30
2023-05-06T03:51:29.607Z,8.00
2023-05-06T03:53:56.538Z,8.75
2023-05-06T03:56:24.162Z,8.07
2023-05-06T03:58:50.698Z,7.50
2023-05-06T04:01:18.475Z,7.80
2023-05-06T04:03:45.067Z,7.57
2023-05-06T04:06:11.660Z,8.93
2023-05-06T04:08:38.106Z,7.68
2023-05-06T04:11:06.156Z,8.10
2023-05-06T04:13:39.648Z,10.00
2023-05-06T04:16:06.474Z,8.40
2023-05-06T04:18:34.291Z,8.73
2023-05-06T04:21:00.994Z,8.13
2023-05-06T04:23:27.666Z,8.32
2023-05-06T04:25:54.186Z,7.97
2023-05-06T04:28:20.784Z,8.43
2023-05-06T04:30:48.263Z,8.60
2023-05-06T04:33:16.840Z,11.77
2023-05-06T04:35:53.444Z,9.70
2023-05-06T04:38:21.824Z,8.52
2023-05-06T04:40:53.637Z,9.63
2023-05-06T04:43:20.716Z,8.85
2023-05-06T04:45:54.331Z,9.73
2023-05-06T04:48:22.380Z,9.35
2023-05-06T04:50:55.982Z,11.57
2023-05-06T04:53:22.493Z,11.88
2023-05-06T04:55:48.962Z,11.43
2023-05-06T04:58:15.658Z,9.52
2023-05-06T05:00:42.460Z,9.75
2023-05-06T05:03:09.036Z,10.05
2023-05-06T05:05:35.637Z,8.65
2023-05-06T05:08:02.162Z,9.35
2023-05-06T05:10:36.672Z,11.23
2023-05-06T05:13:03.189Z,10.82
2023-05-06T05:15:29.695Z,10.25
2023-05-06T05:17:58.746Z,10.85
2023-05-06T05:20:25.377Z,10.27
2023-05-06T05:22:52.881Z,10.18
2023-05-06T05:25:19.336Z,11.40
2023-05-06T05:27:49.959Z,11.73
2023-05-06T05:30:16.610Z,10.77
2023-05-06T05:32:50.758Z,12.43
2023-05-06T05:35:19.333Z,10.63
2023-05-06T05:37:45.817Z,10.75
2023-05-06T05:40:13.085Z,10.63
2023-05-06T05:42:40.676Z,10.52
2023-05-06T05:45:08.711Z,12.50
2023-05-06T05:47:35.580Z,11.20
2023-05-06T05:50:02.154Z,9.50
2023-05-06T05:52:28.688Z,10.68
2023-05-06T05:54:55.236Z,11.35
2023-05-06T05:57:28.898Z,9.85
2023-05-06T05:59:56.412Z,12.40
2023-05-06T06:02:23.185Z,9.13
2023-05-06T06:04:57.731Z,11.90
2023-05-06T06:07:24.849Z,14.80
2023-05-06T06:09:51.658Z,11.90
2023-05-06T06:12:20.164Z,11.10
2023-05-06T06:14:48.142Z,10.82
2023-05-06T06:17:15.303Z,8.98
2023-05-06T06:19:47.111Z,11.52
2023-05-06T06:22:13.678Z,11.35
2023-05-06T06:24:40.239Z,9.80
2023-05-06T06:27:25.210Z,9.70
2023-05-06T06:29:53.676Z,9.38
2023-05-06T06:32:22.262Z,11.20
2023-05-06T06:34:50.741Z,9.52
2023-05-06T06:37:17.209Z,10.18
2023-05-06T06:39:43.782Z,9.02
2023-05-06T06:42:16.340Z,14.20
2023-05-06T06:44:42.834Z,9.23
2023-05-06T06:47:09.319Z,10.13
2023-05-06T06:49:40.333Z,9.82
2023-05-06T06:52:06.793Z,9.00
2023-05-06T06:54:33.267Z,10.32
2023-05-06T06:57:00.154Z,8.82
2023-05-06T06:59:26.740Z,9.38
2023-05-06T07:01:53.226Z,10.43
2023-05-06T07:04:19.822Z,9.32
2023-05-06T07:06:46.444Z,8.18
2023-05-06T07:09:13.339Z,8.75
2023-05-06T07:11:41.837Z,9.05
2023-05-06T07:14:08.776Z,9.48
2023-05-06T07:16:41.865Z,10.57
2023-05-06T07:19:20.441Z,8.65
2023-05-06T07:21:48.930Z,9.65
2023-05-06T07:24:15.466Z,8.88
2023-05-06T07:26:42.114Z,9.75
2023-05-06T07:29:08.765Z,8.25
2023-05-06T07:31:42.191Z,7.80
2023-05-06T07:34:08.713Z,8.73
2023-05-06T07:36:40.509Z,8.27
2023-05-06T07:39:07.708Z,7.30
2023-05-06T07:41:34.509Z,7.40
2023-05-06T07:44:01.409Z,7.90
2023-05-06T07:46:28.201Z,7.82
2023-05-06T07:48:54.962Z,7.93
2023-05-06T07:51:21.797Z,7.32
2023-05-06T07:53:50.453Z,8.85
2023-05-06T07:56:23.078Z,7.80
2023-05-06T07:58:51.564Z,8.23
2023-05-06T08:01:18.217Z,7.47
2023-05-06T08:03:44.839Z,5.63
2023-05-06T08:06:11.496Z,6.68
2023-05-06T08:08:37.979Z,6.43
2023-05-06T08:11:04.768Z,7.18
2023-05-06T08:13:33.439Z,6.10
2023-05-06T08:16:02.272Z,7.80
2023-05-06T08:18:28.900Z,8.13
2023-05-06T08:20:55.702Z,9.07
2023-05-06T08:23:26.204Z,6.90
2023-05-06T08:25:52.699Z,7.77
2023-05-06T08:28:19.740Z,8.32
2023-05-06T08:30:48.391Z,6.18
2023-05-06T08:33:14.938Z,7.43
2023-05-06T08:35:42.518Z,4.82
2023-05-06T08:38:09.120Z,5.43
2023-05-06T08:40:43.114Z,6.40
2023-05-06T08:43:19.982Z,6.80
2023-05-06T08:45:52.334Z,5.78
2023-05-06T08:48:18.933Z,6.10
2023-05-06T08:50:47.549Z,7.75
2023-05-06T08:53:14.201Z,5.75
2023-05-06T08:55:42.570Z,7.57
2023-05-06T08:58:14.080Z,6.82
2023-05-06T09:00:40.719Z,5.57
2023-05-06T09:03:07.392Z,3.85
2023-05-06T09:05:33.977Z,5.70
2023-05-06T09:08:00.458Z,6.47
2023-05-06T09:10:33.093Z,5.32
2023-05-06T09:12:59.771Z,6.05
2023-05-06T09:15:27.086Z,7.22
2023-05-06T09:17:55.315Z,5.57
2023-05-06T09:20:21.959Z,5.90
2023-05-06T09:22:49.059Z,7.32
2023-05-06T09:25:15.628Z,7.05
2023-05-06T09:27:42.085Z,6.10
2023-05-06T09:30:12.446Z,6.35
2023-05-06T09:32:40.507Z,3.63
2023-05-06T09:35:08.626Z,4.75
2023-05-06T09:37:35.415Z,4.78
2023-05-06T09:40:01.988Z,5.80
2023-05-06T09:42:30.146Z,5.70
2023-05-06T09:45:01.547Z,4.47
2023-05-06T09:47:33.746Z,6.68
2023-05-06T09:50:01.592Z,4.95
2023-05-06T09:52:29.039Z,6.97
2023-05-06T09:54:55.817Z,6.22
2023-05-06T09:57:22.965Z,8.85
2023-05-06T09:59:52.263Z,6.28
2023-05-06T10:02:20.093Z,5.75
2023-05-06T10:04:49.086Z,5.90
2023-05-06T10:07:19.722Z,6.53
2023-05-06T10:09:48.840Z,4.20
2023-05-06T10:12:16.720Z,5.13
2023-05-06T10:14:54.616Z,4.47
2023-05-06T10:17:25.868Z,5.25
2023-05-06T10:19:57.119Z,6.63
2023-05-06T10:22:49.384Z,5.00
2023-05-06T10:25:38.095Z,4.60
2023-05-06T10:28:07.594Z,4.10
2023-05-06T10:30:44.947Z,5.82
2023-05-06T10:33:15.172Z,5.80
2023-05-06T10:35:41.810Z,6.80
2023-05-06T10:38:14.943Z,5.88
2023-05-06T10:40:42.403Z,5.25
2023-05-06T10:43:25.466Z,5.15
2023-05-06T10:46:12.309Z,5.68
2023-05-06T10:48:59.805Z,5.13
2023-05-06T10:51:28.251Z,6.22
2023-05-06T10:54:09.668Z,7.50
2023-05-06T10:56:38.236Z,6.18
2023-05-06T10:59:10.091Z,4.85
2023-05-06T11:01:38.554Z,6.13
2023-05-06T11:04:11.051Z,7.38
2023-05-06T11:06:41.733Z,5.60
2023-05-06T11:09:27.466Z,6.65
2023-05-06T11:12:02.636Z,6.82
2023-05-06T11:14:35.571Z,7.32
2023-05-06T11:17:08.643Z,7.13
2023-05-06T11:19:37.699Z,6.65
2023-05-06T11:22:06.060Z,6.50
2023-05-06T11:24:40.248Z,7.47
2023-05-06T11:27:07.484Z,7.78
2023-05-06T11:29:33.999Z,5.18
2023-05-06T11:32:05.656Z,6.85
2023-05-06T11:34:32.929Z,6.63
2023-05-06T11:37:02.291Z,6.28
2023-05-06T11:39:33.216Z,6.63
2023-05-06T11:42:09.498Z,6.40
2023-05-06T11:44:38.782Z,4.32
2023-05-06T11:47:07.540Z,5.57
2023-05-06T11:49:42.757Z,6.80
2023-05-06T11:52:10.757Z,6.68
2023-05-06T11:54:48.442Z,4.88
2023-05-06T11:57:16.231Z,5.78
2023-05-06T11:59:43.748Z,5.20
2023-05-06T12:02:14.151Z,6.10
2023-05-06T12:04:42.941Z,5.90
2023-05-06T12:07:11.834Z,6.90
2023-05-06T12:09:49.191Z,4.68
2023-05-06T12:12:19.435Z,5.43
2023-05-06T12:14:49.243Z,4.22
2023-05-06T12:17:16.573Z,4.07
2023-05-06T12:19:43.055Z,4.63
2023-05-06T12:22:16.465Z,4.68
2023-05-06T12:24:43.038Z,3.75
2023-05-06T12:27:09.638Z,5.05
2023-05-06T12:29:36.246Z,10.13
2023-05-06T12:32:13.879Z,5.05
2023-05-06T12:34:41.623Z,8.80
2023-05-06T12:37:11.372Z,5.07
2023-05-06T12:39:39.381Z,5.72
2023-05-06T12:42:06.491Z,5.30
2023-05-06T12:44:33.581Z,2.88
2023-05-06T12:47:07.417Z,4.40
2023-05-06T12:49:59.416Z,4.50
2023-05-06T12:52:28.786Z,3.90
2023-05-06T12:54:55.769Z,4.45
2023-05-06T12:57:22.947Z,3.35
2023-05-06T12:59:49.951Z,4.53
2023-05-06T13:02:16.528Z,3.70
2023-05-06T13:04:44.283Z,3.97
2023-05-06T13:07:10.884Z,5.22
2023-05-06T13:09:37.365Z,5.80
2023-05-06T13:12:05.099Z,2.92
2023-05-06T13:14:33.617Z,3.85
2023-05-06T13:17:01.305Z,4.07
2023-05-06T13:19:32.900Z,4.82
2023-05-06T13:22:07.167Z,4.82
2023-05-06T13:24:33.665Z,4.60
2023-05-06T13:27:01.436Z,6.85
2023-05-06T13:29:29.538Z,6.03
2023-05-06T13:31:56.566Z,5.32
2023-05-06T13:34:23.108Z,3.38
2023-05-06T13:36:52.160Z,2.95
2023-05-06T13:39:18.644Z,5.88
2023-05-06T13:41:50.053Z,4.95
2023-05-06T13:44:17.276Z,4.20
2023-05-06T13:46:45.655Z,4.07
2023-05-06T13:49:14.609Z,4.15
2023-05-06T13:51:42.169Z,5.25
2023-05-06T13:54:08.652Z,3.35
2023-05-06T13:56:35.366Z,3.42
2023-05-06T13:59:01.866Z,3.38
2023-05-06T14:01:28.353Z,3.67
2023-05-06T14:03:54.868Z,3.40
2023-05-06T14:06:21.294Z,4.13
2023-05-06T14:08:47.993Z,2.33
2023-05-06T14:11:14.459Z,2.60
2023-05-06T14:13:41.902Z,2.63
2023-05-06T14:16:08.550Z,2.60
2023-05-06T14:18:35.227Z,2.67
2023-05-06T14:21:01.799Z,2.08
2023-05-06T14:23:28.248Z,2.38
2023-05-06T14:25:54.755Z,2.83
2023-05-06T14:28:21.218Z,3.20
2023-05-06T14:30:50.828Z,2.85
2023-05-06T14:33:17.289Z,2.95
2023-05-06T14:35:46.032Z,2.90
2023-05-06T14:38:12.539Z,3.10
2023-05-06T14:40:40.318Z,1.92
2023-05-06T14:43:07.604Z,3.83
2023-05-06T14:45:42.581Z,2.90
2023-05-06T14:48:14.163Z,4.25
2023-05-06T14:50:41.192Z,3.03
2023-05-06T14:53:07.667Z,7.75
2023-05-06T14:55:34.103Z,8.10
2023-05-06T14:58:03.758Z,9.27
2023-05-06T15:00:31.089Z,5.47
2023-05-06T15:02:57.584Z,11.25
2023-05-06T15:05:26.235Z,4.97
2023-05-06T15:07:52.691Z,7.47
2023-05-06T15:10:27.048Z,5.70
2023-05-06T15:12:53.532Z,3.90
2023-05-06T15:15:20.324Z,5.72
2023-05-06T15:17:47.004Z,11.88
2023-05-06T15:20:13.638Z,8.38
2023-05-06T15:22:40.325Z,9.55
2023-05-06T15:25:09.411Z,5.43
2023-05-06T15:27:40.901Z,4.97
2023-05-06T15:30:10.851Z,5.15
2023-05-06T15:32:37.398Z,4.68
2023-05-06T15:35:04.888Z,2.63
2023-05-06T15:37:34.367Z,3.72
2023-05-06T15:40:01.050Z,5.15
2023-05-06T15:42:27.652Z,4.68
2023-05-06T15:44:55.021Z,3.00
2023-05-06T15:47:27.487Z,4.22
2023-05-06T15:49:54.972Z,2.70
2023-05-06T15:52:22.557Z,4.18
2023-05-06T15:54:50.083Z,2.05
2023-05-06T15:57:17.167Z,3.45
2023-05-06T15:59:43.597Z,5.60
2023-05-06T16:04:41.116Z,1.88
2023-05-06T16:07:07.692Z,3.63
2023-05-06T16:09:35.168Z,4.47
2023-05-06T16:12:01.647Z,2.22
2023-05-06T16:14:28.095Z,2.78
2023-05-06T16:16:54.618Z,3.58
2023-05-06T16:19:21.149Z,3.53
2023-05-06T16:21:48.355Z,1.63
2023-05-06T16:24:14.969Z,3.05
2023-05-06T16:26:41.549Z,3.22
2023-05-06T16:29:08.041Z,2.25
2023-05-06T16:31:34.681Z,3.17
2023-05-06T16:34:01.234Z,2.72
2023-05-06T16:36:28.895Z,4.65
2023-05-06T16:38:55.527Z,3.35
2023-05-06T16:41:22.559Z,2.50
2023-05-06T16:43:49.033Z,2.20
2023-05-06T16:46:15.624Z,3.08
2023-05-06T16:48:42.255Z,3.38
2023-05-06T16:51:10.332Z,1.88
2023-05-06T16:53:36.811Z,4.10
2023-05-06T16:56:03.713Z,3.40
2023-05-06T16:58:31.369Z,3.38
2023-05-06T17:00:57.831Z,2.63
2023-05-06T17:03:27.593Z,4.57
2023-05-06T17:05:54.515Z,3.63
2023-05-06T17:08:27.248Z,3.03
2023-05-06T17:10:53.823Z,2.53
2023-05-06T17:13:23.513Z,4.15
2023-05-06T17:15:51.332Z,2.60
2023-05-06T17:18:18.519Z,3.10
2023-05-06T17:20:54.910Z,4.07
2023-05-06T17:23:22.057Z,17.83
2023-05-06T17:25:48.570Z,7.55
2023-05-06T17:28:18.002Z,2.22
2023-05-06T17:30:47.176Z,5.00
2023-05-06T17:33:14.711Z,5.32
2023-05-06T17:35:41.156Z,3.03
2023-05-06T17:38:07.894Z,6.95
2023-05-06T17:40:34.522Z,4.93
2023-05-06T17:43:11.246Z,2.42
2023-05-06T17:45:37.687Z,2.65
2023-05-06T17:48:04.410Z,2.63
2023-05-06T17:50:31.907Z,2.50
2023-05-06T17:52:58.343Z,2.40
2023-05-06T17:55:25.094Z,3.13
2023-05-06T17:57:52.777Z,3.90
2023-05-06T18:00:19.525Z,2.88
2023-05-06T18:02:46.278Z,3.15
2023-05-06T18:05:13.744Z,16.95
2023-05-06T18:07:40.953Z,11.35
2023-05-06T18:10:08.018Z,11.68
2023-05-06T18:12:34.555Z,4.95
2023-05-06T18:15:01.299Z,6.97
2023-05-06T18:17:27.818Z,4.22
2023-05-06T18:19:54.388Z,2.63
2023-05-06T18:22:20.859Z,3.65
2023-05-06T18:24:47.418Z,2.67
2023-05-06T18:27:13.874Z,2.85
2023-05-06T18:29:41.415Z,2.88
2023-05-06T18:32:09.054Z,3.83
2023-05-06T18:34:35.675Z,3.45
2023-05-06T18:37:03.779Z,2.90
2023-05-06T18:39:30.716Z,2.47
2023-05-06T18:41:57.240Z,3.40
2023-05-06T18:44:23.710Z,4.20
2023-05-06T18:46:50.227Z,4.78
2023-05-06T18:49:16.678Z,4.35
2023-05-06T18:51:45.247Z,2.53
2023-05-06T18:54:13.431Z,2.78
2023-05-06T18:56:42.633Z,3.00
2023-05-06T18:59:09.164Z,3.45
2023-05-06T19:01:36.661Z,3.90
2023-05-06T19:04:03.750Z,3.10
2023-05-06T19:06:31.533Z,3.35
2023-05-06T19:09:11.371Z,4.32
2023-05-06T19:11:37.905Z,2.95
2023-05-06T19:14:05.480Z,3.45
2023-05-06T19:16:33.034Z,3.80
2023-05-06T19:19:02.718Z,3.40
2023-05-06T19:21:29.240Z,2.80
2023-05-06T19:24:04.488Z,3.10
2023-05-06T19:26:31.017Z,4.40
2023-05-06T19:28:57.494Z,4.00
2023-05-06T19:31:25.765Z,4.20
2023-05-06T19:33:52.416Z,4.75
2023-05-06T19:36:18.838Z,6.75
2023-05-06T19:38:45.285Z,5.38
2023-05-06T19:41:11.834Z,8.57
2023-05-06T19:43:45.282Z,6.35
2023-05-06T19:46:12.186Z,4.25
2023-05-06T19:48:46.164Z,4.75
2023-05-06T19:51:16.469Z,17.73
2023-05-06T19:53:43.036Z,24.17
2023-05-06T19:56:11.060Z,11.55
2023-05-06T19:58:38.041Z,7.00
2023-05-06T20:01:04.595Z,4.75
2023-05-06T20:03:42.210Z,5.30
2023-05-06T20:06:08.836Z,26.92
2023-05-06T20:08:35.565Z,16.73
2023-05-06T20:11:02.197Z,28.95
2023-05-06T20:13:28.797Z,12.43
2023-05-06T20:15:55.723Z,16.75
2023-05-06T20:18:22.791Z,15.73
2023-05-06T20:20:50.628Z,10.60
2023-05-06T20:23:17.173Z,11.10
2023-05-06T20:25:43.959Z,9.63
2023-05-06T20:28:10.761Z,8.32
2023-05-06T20:30:38.357Z,7.18
2023-05-06T20:33:18.073Z,4.80
2023-05-06T20:35:44.647Z,3.90
2023-05-06T20:38:11.176Z,5.53
2023-05-06T20:40:37.761Z,4.40
2023-05-06T20:43:04.280Z,4.82
2023-05-06T20:45:31.466Z,5.00
2023-05-06T20:47:58.404Z,4.25
2023-05-06T20:50:24.927Z,4.50
2023-05-06T20:52:52.904Z,11.02
2023-05-06T20:55:23.064Z,9.93
2023-05-06T20:57:49.949Z,8.00
2023-05-06T21:00:16.599Z,5.18
2023-05-06T21:02:43.209Z,3.45
2023-05-06T21:05:13.297Z,5.72
2023-05-06T21:07:40.140Z,3.25
2023-05-06T21:10:06.983Z,4.65
2023-05-06T21:12:33.715Z,4.25
2023-05-06T21:15:00.536Z,4.18
2023-05-06T21:17:27.238Z,5.13
2023-05-06T21:19:53.923Z,5.18
2023-05-06T21:22:24.041Z,3.78
2023-05-06T21:24:51.066Z,4.53
2023-05-06T21:27:17.752Z,5.22
2023-05-06T21:29:45.458Z,4.68
2023-05-06T21:32:12.113Z,3.40
2023-05-06T21:34:38.713Z,3.97
2023-05-06T21:37:05.264Z,5.57
2023-05-06T21:39:31.755Z,4.75
2023-05-06T21:41:58.508Z,3.47
2023-05-06T21:44:25.010Z,2.65
2023-05-06T21:46:51.562Z,4.60
2023-05-06T21:49:19.425Z,3.20
2023-05-06T21:51:45.881Z,2.40
2023-05-06T21:54:12.377Z,3.88
2023-05-06T21:56:40.898Z,3.47
2023-05-06T21:59:07.937Z,3.60
2023-05-06T22:01:36.301Z,5.38
2023-05-06T22:04:04.825Z,4.20
2023-05-06T22:06:31.461Z,4.82
2023-05-06T22:08:57.913Z,4.60
2023-05-06T22:11:24.785Z,2.65
2023-05-06T22:13:51.334Z,3.90
2023-05-06T22:16:29.667Z,3.63
2023-05-06T22:18:59.724Z,4.53
2023-05-06T22:21:28.696Z,3.15
2023-05-06T22:23:55.138Z,4.07
2023-05-06T22:26:21.876Z,3.17
2023-05-06T22:28:48.378Z,6.80
2023-05-06T22:31:15.584Z,3.90
2023-05-06T22:33:42.291Z,4.25
2023-05-06T22:36:08.820Z,4.13
2023-05-06T22:38:35.285Z,4.82
2023-05-06T22:41:04.977Z,5.00
2023-05-06T22:43:31.431Z,5.85
2023-05-06T22:45:57.950Z,4.32
2023-05-06T22:48:24.755Z,4.03
2023-05-06T22:50:51.216Z,5.07
2023-05-06T22:53:17.668Z,5.15
2023-05-06T22:55:45.402Z,6.35
2023-05-06T22:58:15.086Z,5.55
2023-05-06T23:00:43.224Z,5.28
2023-05-06T23:03:11.765Z,6.63
2023-05-06T23:05:38.252Z,4.38
2023-05-06T23:08:04.926Z,5.55
2023-05-06T23:10:32.452Z,5.82
2023-05-06T23:13:03.002Z,8.82
2023-05-06T23:15:30.637Z,6.25
2023-05-06T23:17:57.129Z,6.25
2023-05-06T23:20:30.786Z,5.70
2023-05-06T23:22:57.279Z,6.15
2023-05-06T23:25:24.240Z,5.63
2023-05-06T23:27:50.749Z,8.18
2023-05-06T23:30:20.414Z,5.90
2023-05-06T23:32:46.962Z,6.30
2023-05-06T23:35:13.684Z,6.50
2023-05-06T23:37:40.275Z,7.95
2023-05-06T23:40:07.763Z,7.00
2023-05-06T23:42:34.218Z,7.68
2023-05-06T23:45:00.887Z,7.68
2023-05-06T23:47:27.464Z,6.07
2023-05-06T23:49:53.961Z,5.88
2023-05-06T23:52:21.299Z,11.52
2023-05-06T23:54:47.812Z,7.00
2023-05-06T23:57:14.298Z,6.63
2023-05-06T23:59:40.743Z,6.75
